Time;durP1;ratioP1;P1;durP2;ratioP2;P2;SDS_P1;SDS_P2;PMS_P1;PMS_P2;Temp;Humidity;BMP_temperature;BMP_pressure;BME280_temperature;BME280_humidity;BME280_pressure;Samples;Min_cycle;Max_cycle;Signal;HPM_P1;HPM_P2
2021/10/27 00:00:48;;;;;;;;;12.67;12.00;;;;;;;;5097219;28;8861;-74
2021/10/27 00:03:13;;;;;;;;;15.00;14.00;;;;;;;;5095541;28;8808;-74
2021/10/27 00:05:39;;;;;;;;;16.67;15.67;;;;;;;;5095768;28;8922;-74
2021/10/27 00:08:04;;;;;;;;;16.33;16.00;;;;;;;;5095519;28;8821;-74
2021/10/27 00:10:30;;;;;;;;;14.00;13.33;;;;;;;;5095637;28;8798;-74
2021/10/27 00:12:55;;;;;;;;;18.33;18.33;;;;;;;;5096932;28;8797;-74
2021/10/27 00:15:23;;;;;;;;;22.00;18.33;;;;;;;;5096848;28;8801;-74
2021/10/27 00:17:49;;;;;;;;;19.75;17.50;;;;;;;;5095116;28;8825;-73
2021/10/27 00:20:15;;;;;;;;;19.67;19.33;;;;;;;;5095426;28;9002;-72
2021/10/27 00:22:41;;;;;;;;;20.00;19.67;;;;;;;;5095292;28;8778;-72
2021/10/27 00:25:07;;;;;;;;;17.33;16.00;;;;;;;;5095395;28;9818;-72
2021/10/27 00:27:32;;;;;;;;;19.50;19.00;;;;;;;;5096798;28;8766;-72
2021/10/27 00:29:58;;;;;;;;;17.00;15.33;;;;;;;;5102364;28;9008;-72
2021/10/27 00:32:23;;;;;;;;;20.67;20.00;;;;;;;;5117095;27;8881;-72
2021/10/27 00:34:48;;;;;;;;;19.00;18.00;;;;;;;;5116959;27;8787;-72
2021/10/27 00:37:13;;;;;;;;;20.33;18.33;;;;;;;;5117024;27;8814;-72
2021/10/27 00:39:39;;;;;;;;;16.00;15.00;;;;;;;;5117125;27;8811;-72
2021/10/27 00:42:05;;;;;;;;;16.67;16.33;;;;;;;;5116869;27;8807;-72
2021/10/27 00:44:31;;;;;;;;;18.00;17.75;;;;;;;;5117004;27;8751;-72
2021/10/27 00:47:02;;;;;;;;;16.50;16.50;;;;;;;;5116950;27;9736;-74
2021/10/27 00:49:29;;;;;;;;;17.00;16.50;;;;;;;;5115443;28;8783;-75
2021/10/27 00:51:55;;;;;;;;;19.00;17.00;;;;;;;;5115203;28;8806;-74
2021/10/27 00:54:20;;;;;;;;;22.33;19.00;;;;;;;;5115507;28;8913;-72
2021/10/27 00:56:46;;;;;;;;;17.33;17.33;;;;;;;;5115284;28;8876;-74
2021/10/27 00:59:11;;;;;;;;;20.33;18.33;;;;;;;;5115247;28;8871;-75
2021/10/27 01:01:37;;;;;;;;;18.00;16.00;;;;;;;;5115306;28;8884;-72
2021/10/27 01:04:03;;;;;;;;;17.67;16.67;;;;;;;;5115268;28;9659;-72
2021/10/27 01:06:28;;;;;;;;;19.50;17.00;;;;;;;;5116765;27;8781;-72
2021/10/27 01:08:53;;;;;;;;;21.00;17.67;;;;;;;;5116744;27;8809;-73
2021/10/27 01:11:24;;;;;;;;;17.67;16.67;;;;;;;;5115251;28;9601;-72
2021/10/27 01:13:50;;;;;;;;;17.25;16.25;;;;;;;;5115230;28;8788;-72
2021/10/27 01:16:15;;;;;;;;;16.00;15.00;;;;;;;;5115164;28;8814;-72
2021/10/27 01:18:43;;;;;;;;;15.67;14.67;;;;;;;;5114891;28;8867;-74
2021/10/27 01:21:08;;;;;;;;;17.00;15.75;;;;;;;;5114748;28;8787;-73
2021/10/27 01:23:34;;;;;;;;;17.33;17.33;;;;;;;;5114988;28;8783;-74
2021/10/27 01:26:06;;;;;;;;;18.00;17.67;;;;;;;;5115074;28;8799;-72
2021/10/27 01:28:37;;;;;;;;;18.25;17.00;;;;;;;;5114962;28;8791;-74
2021/10/27 01:31:02;;;;;;;;;18.25;16.25;;;;;;;;5102332;28;8818;-74
2021/10/27 01:33:28;;;;;;;;;17.67;17.67;;;;;;;;5097947;28;8817;-72
2021/10/27 01:35:53;;;;;;;;;15.33;15.00;;;;;;;;5099627;28;8793;-73
2021/10/27 01:38:18;;;;;;;;;12.67;12.67;;;;;;;;5099299;28;9006;-72
2021/10/27 01:40:44;;;;;;;;;19.67;19.00;;;;;;;;5099411;28;8848;-72
2021/10/27 01:43:09;;;;;;;;;18.67;16.67;;;;;;;;5099382;28;8890;-73
2021/10/27 01:45:34;;;;;;;;;13.00;13.00;;;;;;;;5099350;28;8797;-72
2021/10/27 01:48:00;;;;;;;;;15.67;15.67;;;;;;;;5097902;28;8867;-73
2021/10/27 01:50:26;;;;;;;;;18.33;17.33;;;;;;;;5097630;28;9657;-73
2021/10/27 01:52:51;;;;;;;;;15.00;15.00;;;;;;;;5097600;28;8801;-73
2021/10/27 01:55:17;;;;;;;;;18.00;18.00;;;;;;;;5097826;28;8798;-72
2021/10/27 01:57:45;;;;;;;;;17.67;17.67;;;;;;;;5097808;28;8797;-72
2021/10/27 02:00:10;;;;;;;;;20.25;19.00;;;;;;;;5097590;28;8798;-72
2021/10/27 02:02:36;;;;;;;;;17.33;16.33;;;;;;;;5097589;28;8856;-74
2021/10/27 02:05:01;;;;;;;;;17.67;17.00;;;;;;;;5097452;28;8832;-74
2021/10/27 02:07:27;;;;;;;;;17.33;17.33;;;;;;;;5098920;28;8774;-74
2021/10/27 02:09:52;;;;;;;;;20.00;19.33;;;;;;;;5097524;28;8879;-72
2021/10/27 02:12:17;;;;;;;;;19.33;16.33;;;;;;;;5097570;28;8836;-74
2021/10/27 02:14:43;;;;;;;;;16.00;15.00;;;;;;;;5098948;28;8813;-72
2021/10/27 02:17:08;;;;;;;;;20.00;17.33;;;;;;;;5098611;28;9601;-72
2021/10/27 02:19:34;;;;;;;;;15.67;15.67;;;;;;;;5097190;28;9561;-72
2021/10/27 02:22:00;;;;;;;;;17.33;17.33;;;;;;;;5097141;28;8801;-72
2021/10/27 02:24:25;;;;;;;;;19.00;19.00;;;;;;;;5097353;28;8810;-72
2021/10/27 02:26:51;;;;;;;;;17.67;17.00;;;;;;;;5097346;28;8802;-74
2021/10/27 02:29:16;;;;;;;;;19.00;19.00;;;;;;;;5097016;28;8801;-74
2021/10/27 02:31:42;;;;;;;;;18.33;17.00;;;;;;;;5117449;28;8811;-74
2021/10/27 02:34:07;;;;;;;;;18.33;17.33;;;;;;;;5117377;28;8798;-72
2021/10/27 02:36:33;;;;;;;;;22.33;19.33;;;;;;;;5117355;28;8806;-75
2021/10/27 02:38:59;;;;;;;;;19.67;18.33;;;;;;;;5118864;27;8822;-75
2021/10/27 02:41:24;;;;;;;;;21.67;21.00;;;;;;;;5116315;28;8791;-75
2021/10/27 02:43:50;;;;;;;;;19.67;18.33;;;;;;;;5118496;27;10720;-72
2021/10/27 02:46:15;;;;;;;;;19.00;17.33;;;;;;;;5118852;27;9530;-72
2021/10/27 02:48:40;;;;;;;;;18.33;17.00;;;;;;;;5118542;27;8811;-72
2021/10/27 02:51:05;;;;;;;;;23.33;20.33;;;;;;;;5117277;28;8807;-74
2021/10/27 02:53:31;;;;;;;;;22.00;20.00;;;;;;;;5118434;27;8828;-74
2021/10/27 02:55:56;;;;;;;;;20.00;18.33;;;;;;;;5117296;28;8896;-72
2021/10/27 02:58:22;;;;;;;;;19.67;19.67;;;;;;;;5118506;27;8771;-74
2021/10/27 03:00:47;;;;;;;;;16.67;16.00;;;;;;;;5117123;28;8821;-72
2021/10/27 03:03:13;;;;;;;;;19.67;17.00;;;;;;;;5116735;28;9543;-74
2021/10/27 03:05:38;;;;;;;;;18.00;17.33;;;;;;;;5118565;27;8957;-75
2021/10/27 03:08:04;;;;;;;;;19.67;19.00;;;;;;;;5118290;27;8909;-74
2021/10/27 03:10:29;;;;;;;;;22.67;20.67;;;;;;;;5118467;27;9539;-71
2021/10/27 03:12:55;;;;;;;;;18.67;17.67;;;;;;;;5117052;28;8917;-72
2021/10/27 03:15:20;;;;;;;;;16.00;16.00;;;;;;;;5116852;28;8901;-72
2021/10/27 03:17:46;;;;;;;;;17.33;17.00;;;;;;;;5117984;27;8803;-72
2021/10/27 03:20:11;;;;;;;;;16.67;16.67;;;;;;;;5118233;27;8912;-72
2021/10/27 03:22:37;;;;;;;;;17.33;17.33;;;;;;;;5118225;27;8795;-74
2021/10/27 03:25:03;;;;;;;;;18.00;16.33;;;;;;;;5118262;27;8799;-74
2021/10/27 03:27:28;;;;;;;;;20.00;17.67;;;;;;;;5116806;28;8795;-75
2021/10/27 03:29:53;;;;;;;;;18.33;16.33;;;;;;;;5111310;28;11539;-73
2021/10/27 03:32:19;;;;;;;;;17.33;17.33;;;;;;;;5096411;28;8821;-72
2021/10/27 03:34:45;;;;;;;;;18.33;18.00;;;;;;;;5095971;28;8801;-73
2021/10/27 03:37:13;;;;;;;;;19.33;16.67;;;;;;;;5096088;28;8845;-71
2021/10/27 03:39:38;;;;;;;;;21.67;19.67;;;;;;;;5097527;28;8813;-71
2021/10/27 03:42:03;;;;;;;;;17.00;16.00;;;;;;;;5096074;28;8965;-71
2021/10/27 03:44:29;;;;;;;;;17.67;15.67;;;;;;;;5096171;28;8852;-71
2021/10/27 03:46:54;;;;;;;;;17.33;16.00;;;;;;;;5097491;28;8798;-71
2021/10/27 03:49:20;;;;;;;;;18.67;18.67;;;;;;;;5095909;28;8818;-71
2021/10/27 03:51:46;;;;;;;;;18.33;18.00;;;;;;;;5095714;28;8832;-71
2021/10/27 03:54:12;;;;;;;;;21.75;19.50;;;;;;;;5096633;28;9727;-71
2021/10/27 03:56:37;;;;;;;;;20.67;16.67;;;;;;;;5097437;28;8766;-71
2021/10/27 03:59:02;;;;;;;;;17.00;16.33;;;;;;;;5097361;28;8789;-71
2021/10/27 04:01:28;;;;;;;;;18.33;18.33;;;;;;;;5097237;28;8833;-71
2021/10/27 04:03:53;;;;;;;;;20.33;20.33;;;;;;;;5097011;28;8810;-71
2021/10/27 04:06:18;;;;;;;;;17.00;16.67;;;;;;;;5097082;28;8790;-71
2021/10/27 04:08:43;;;;;;;;;19.33;16.00;;;;;;;;5097223;28;8806;-71
2021/10/27 04:11:09;;;;;;;;;20.67;19.00;;;;;;;;5095636;28;9564;-71
2021/10/27 04:13:35;;;;;;;;;19.33;18.00;;;;;;;;5097078;28;8887;-71
2021/10/27 04:16:00;;;;;;;;;22.33;18.67;;;;;;;;5096784;28;8855;-70
2021/10/27 04:18:25;;;;;;;;;18.33;18.33;;;;;;;;5096376;28;9002;-71
2021/10/27 04:20:51;;;;;;;;;15.00;15.00;;;;;;;;5097168;28;8856;-70
2021/10/27 04:23:17;;;;;;;;;16.25;14.00;;;;;;;;5095494;28;9687;-70
2021/10/27 04:25:42;;;;;;;;;19.00;19.00;;;;;;;;5095513;28;8794;-72
2021/10/27 04:28:08;;;;;;;;;17.33;16.67;;;;;;;;5096836;28;8832;-70
2021/10/27 04:30:33;;;;;;;;;19.33;17.67;;;;;;;;5107300;28;8826;-71
2021/10/27 04:32:59;;;;;;;;;22.00;19.00;;;;;;;;5117050;27;8943;-71
2021/10/27 04:35:25;;;;;;;;;20.33;18.33;;;;;;;;5117165;27;8786;-73
2021/10/27 04:37:53;;;;;;;;;24.00;21.67;;;;;;;;5115569;28;8838;-73
2021/10/27 04:40:19;;;;;;;;;21.33;19.67;;;;;;;;5115591;28;8889;-73
2021/10/27 04:42:46;;;;;;;;;24.67;21.00;;;;;;;;5115493;28;8886;-73
2021/10/27 04:45:12;;;;;;;;;21.33;20.67;;;;;;;;5115556;28;8885;-74
2021/10/27 04:47:38;;;;;;;;;20.00;20.00;;;;;;;;5115302;28;9277;-71
2021/10/27 04:50:06;;;;;;;;;24.33;21.33;;;;;;;;5116965;27;8787;-72
2021/10/27 04:52:32;;;;;;;;;22.33;21.67;;;;;;;;5112174;28;8811;-72
2021/10/27 04:55:00;;;;;;;;;22.00;20.67;;;;;;;;5115324;28;9064;-72
2021/10/27 04:57:25;;;;;;;;;26.00;24.00;;;;;;;;5115525;28;8799;-72
2021/10/27 04:59:51;;;;;;;;;28.67;26.67;;;;;;;;5116818;27;8983;-71
2021/10/27 05:02:16;;;;;;;;;22.33;22.00;;;;;;;;5115377;28;8814;-71
2021/10/27 05:04:42;;;;;;;;;24.00;22.33;;;;;;;;5116671;27;8772;-72
2021/10/27 05:07:09;;;;;;;;;23.67;22.33;;;;;;;;5120282;27;8814;-74
2021/10/27 05:09:34;;;;;;;;;23.67;21.67;;;;;;;;5120325;27;8771;-74
2021/10/27 05:12:00;;;;;;;;;19.00;18.67;;;;;;;;5120293;27;9113;-75
2021/10/27 05:14:25;;;;;;;;;18.67;17.67;;;;;;;;5120277;27;8820;-74
2021/10/27 05:17:02;;;;;;;;;60.50;49.75;;;;;;;;5119603;27;8810;-77
2021/10/27 05:19:27;;;;;;;;;34.00;31.00;;;;;;;;5120265;27;11464;-77
2021/10/27 05:21:53;;;;;;;;;23.67;21.00;;;;;;;;5118655;28;10288;-78
2021/10/27 05:24:19;;;;;;;;;23.33;21.67;;;;;;;;5118670;28;9289;-79
2021/10/27 05:26:44;;;;;;;;;19.00;17.33;;;;;;;;5118518;28;8799;-78
2021/10/27 05:29:10;;;;;;;;;22.33;19.33;;;;;;;;5118601;28;9048;-78
2021/10/27 05:31:37;;;;;;;;;21.00;19.00;;;;;;;;5098978;28;8825;-79
2021/10/27 05:34:02;;;;;;;;;18.33;17.33;;;;;;;;5097986;28;8782;-79
2021/10/27 05:36:28;;;;;;;;;22.00;22.00;;;;;;;;5097893;28;8970;-75
2021/10/27 05:38:54;;;;;;;;;22.33;21.33;;;;;;;;5097992;28;9554;-76
2021/10/27 05:41:19;;;;;;;;;21.67;21.00;;;;;;;;5097967;28;8849;-76
2021/10/27 05:43:45;;;;;;;;;21.67;21.00;;;;;;;;5097915;28;8798;-76
2021/10/27 05:46:12;;;;;;;;;23.00;23.00;;;;;;;;5097950;28;8827;-76
2021/10/27 05:48:44;;;;;;;;;21.33;20.00;;;;;;;;5097596;28;11511;-76
2021/10/27 05:51:18;;;;;;;;;22.33;21.67;;;;;;;;5097725;28;9247;-75
2021/10/27 05:56:29;;;;;;;;;27.33;24.00;;;;;;;;5099197;28;9306;-76
2021/10/27 05:58:55;;;;;;;;;22.67;21.67;;;;;;;;5099234;28;10014;-80
2021/10/27 06:01:20;;;;;;;;;21.33;20.33;;;;;;;;5098932;28;9239;-80
2021/10/27 06:03:45;;;;;;;;;26.67;26.00;;;;;;;;5097384;28;8835;-80
2021/10/27 06:06:14;;;;;;;;;26.33;24.33;;;;;;;;5119422;28;8807;-80
2021/10/27 06:08:39;;;;;;;;;24.67;22.00;;;;;;;;5123785;28;8759;-80
2021/10/27 06:11:13;;;;;;;;;21.67;20.67;;;;;;;;5128205;28;8952;-78
2021/10/27 06:13:44;;;;;;;;;23.00;20.67;;;;;;;;5120256;28;8807;-78
2021/10/27 06:16:09;;;;;;;;;22.00;18.67;;;;;;;;5119422;28;9904;-79
2021/10/27 06:18:34;;;;;;;;;19.33;19.33;;;;;;;;5119258;28;8937;-77
2021/10/27 06:20:59;;;;;;;;;18.67;18.67;;;;;;;;5118048;28;8835;-78
2021/10/27 06:23:25;;;;;;;;;24.67;23.67;;;;;;;;5119816;28;8783;-78
2021/10/27 06:25:51;;;;;;;;;22.33;22.33;;;;;;;;5119621;28;8954;-75
2021/10/27 06:28:22;;;;;;;;;20.33;19.67;;;;;;;;5118997;27;8779;-75
2021/10/27 06:33:33;;;;;;;;;22.00;21.33;;;;;;;;5118863;27;8935;-75
2021/10/27 06:48:54;;;;;;;;;22.67;22.00;;;;;;;;5118788;27;9182;-75
2021/10/27 06:51:19;;;;;;;;;20.00;18.00;;;;;;;;5118645;27;9123;-75
2021/10/27 06:53:44;;;;;;;;;24.67;20.33;;;;;;;;5118516;27;8798;-75
2021/10/27 06:56:13;;;;;;;;;25.67;23.67;;;;;;;;5118871;27;8783;-75
2021/10/27 07:01:14;;;;;;;;;21.33;19.33;;;;;;;;5118580;27;9108;-75
2021/10/27 07:04:18;;;;;;;;;26.33;23.67;;;;;;;;5118433;27;8910;-75
2021/10/27 07:17:01;;;;;;;;;32.00;28.33;;;;;;;;5117377;28;9187;-75
2021/10/27 07:19:27;;;;;;;;;28.00;24.00;;;;;;;;5118118;28;9394;-75
2021/10/27 07:21:52;;;;;;;;;25.67;24.33;;;;;;;;5118192;27;8821;-75
2021/10/27 07:24:18;;;;;;;;;28.33;25.00;;;;;;;;5118430;27;8797;-75
2021/10/27 07:26:44;;;;;;;;;27.00;24.67;;;;;;;;5118229;27;8786;-75
2021/10/27 07:29:09;;;;;;;;;29.33;26.33;;;;;;;;5117381;27;8967;-75
2021/10/27 07:31:35;;;;;;;;;27.33;27.00;;;;;;;;5098609;27;8922;-75
2021/10/27 07:34:08;;;;;;;;;27.33;25.33;;;;;;;;5097280;28;9708;-75
2021/10/27 07:42:01;;;;;;;;;28.00;26.67;;;;;;;;5097367;28;8981;-75
2021/10/27 07:44:27;;;;;;;;;26.33;25.67;;;;;;;;5096267;28;9214;-75
2021/10/27 07:46:52;;;;;;;;;31.00;29.00;;;;;;;;5097474;28;8813;-75
2021/10/27 07:49:18;;;;;;;;;26.00;25.33;;;;;;;;5097333;28;9176;-75
2021/10/27 07:51:43;;;;;;;;;27.67;27.33;;;;;;;;5097120;28;8808;-75
2021/10/27 07:54:08;;;;;;;;;29.67;27.33;;;;;;;;5097158;28;8782;-75
2021/10/27 07:56:34;;;;;;;;;24.33;23.67;;;;;;;;5097435;28;8766;-75
2021/10/27 07:59:01;;;;;;;;;27.67;25.33;;;;;;;;5097339;28;8805;-75
2021/10/27 08:01:26;;;;;;;;;26.67;23.00;;;;;;;;5097175;28;8797;-76
2021/10/27 08:03:52;;;;;;;;;27.00;25.33;;;;;;;;5097122;28;9017;-75
2021/10/27 08:06:17;;;;;;;;;25.00;24.00;;;;;;;;5097119;28;8778;-76
2021/10/27 08:08:43;;;;;;;;;25.67;25.00;;;;;;;;5097091;28;8781;-75
2021/10/27 08:11:09;;;;;;;;;30.00;27.00;;;;;;;;5095721;28;8816;-75
2021/10/27 08:13:35;;;;;;;;;18.33;17.33;;;;;;;;5097139;28;8774;-75
2021/10/27 08:16:00;;;;;;;;;26.67;24.00;;;;;;;;5097103;28;9283;-75
2021/10/27 08:18:25;;;;;;;;;28.67;27.00;;;;;;;;5096573;28;9790;-75
2021/10/27 08:20:51;;;;;;;;;27.67;25.00;;;;;;;;5096958;28;8840;-75
2021/10/27 08:23:19;;;;;;;;;26.67;25.00;;;;;;;;5096963;28;8793;-76
2021/10/27 08:25:46;;;;;;;;;29.00;29.00;;;;;;;;5097022;28;8766;-75
2021/10/27 08:28:14;;;;;;;;;30.67;27.33;;;;;;;;5095664;28;9019;-75
2021/10/27 08:30:50;;;;;;;;;25.67;25.00;;;;;;;;5106835;28;8978;-74
2021/10/27 08:35:56;;;;;;;;;25.25;24.75;;;;;;;;5117267;27;9364;-75
2021/10/27 08:38:22;;;;;;;;;32.00;28.67;;;;;;;;5115685;28;8827;-75
2021/10/27 08:40:48;;;;;;;;;28.00;23.00;;;;;;;;5115855;27;8815;-75
2021/10/27 08:43:13;;;;;;;;;27.00;27.00;;;;;;;;5117270;27;9528;-75
2021/10/27 08:45:39;;;;;;;;;30.67;26.67;;;;;;;;5115736;28;8799;-75
2021/10/27 08:48:07;;;;;;;;;31.33;29.00;;;;;;;;5116916;27;8740;-75
2021/10/27 08:50:32;;;;;;;;;29.67;28.33;;;;;;;;5116935;27;8894;-75
2021/10/27 08:52:58;;;;;;;;;26.33;25.67;;;;;;;;5115209;28;9161;-75
2021/10/27 08:55:23;;;;;;;;;30.67;28.33;;;;;;;;5116956;27;8911;-75
2021/10/27 08:57:50;;;;;;;;;28.67;28.00;;;;;;;;5116956;27;8818;-75
2021/10/27 09:41:15;;;;;;;;;27.25;25.25;;;;;;;;5095751;28;8793;-75
2021/10/27 09:44:06;;;;;;;;;27.00;25.25;;;;;;;;5095971;28;8762;-75
2021/10/27 10:05:39;;;;;;;;;21.75;20.50;;;;;;;;5098989;28;8770;-75
2021/10/27 10:08:04;;;;;;;;;19.67;19.67;;;;;;;;5099053;28;8854;-76
2021/10/27 10:10:30;;;;;;;;;20.00;20.00;;;;;;;;5099166;28;8801;-76
2021/10/27 10:12:55;;;;;;;;;19.67;19.67;;;;;;;;5099077;28;8785;-76
2021/10/27 10:15:24;;;;;;;;;20.00;19.00;;;;;;;;5099107;28;8792;-75
2021/10/27 10:17:51;;;;;;;;;23.00;21.50;;;;;;;;5098551;28;8982;-75
2021/10/27 10:20:17;;;;;;;;;21.25;21.25;;;;;;;;5098838;28;8758;-75
2021/10/27 10:22:43;;;;;;;;;21.50;18.75;;;;;;;;5098817;28;8762;-75
2021/10/27 10:25:17;;;;;;;;;20.00;20.00;;;;;;;;5097384;28;8885;-76
2021/10/27 10:27:43;;;;;;;;;20.50;19.00;;;;;;;;5098793;28;8821;-75
2021/10/27 10:30:29;;;;;;;;;13.67;13.33;;;;;;;;5105766;28;8818;-76
2021/10/27 10:33:21;;;;;;;;;17.50;15.75;;;;;;;;5119099;27;8799;-76
2021/10/27 10:35:56;;;;;;;;;16.25;16.25;;;;;;;;5117778;28;8775;-75
2021/10/27 10:38:31;;;;;;;;;15.00;12.50;;;;;;;;5118888;27;8766;-75
2021/10/27 11:01:26;;;;;;;;;9.00;9.00;;;;;;;;5122267;28;8767;-87
2021/10/27 11:11:48;;;;;;;;;9.75;8.50;;;;;;;;5122309;27;8856;-89
2021/10/27 11:22:16;;;;;;;;;7.00;7.00;;;;;;;;5120409;27;8771;-86
2021/10/27 11:40:25;;;;;;;;;6.00;6.00;;;;;;;;5072901;28;8788;-81
2021/10/27 11:47:59;;;;;;;;;6.75;6.75;;;;;;;;5078598;28;8760;-87
2021/10/27 11:50:30;;;;;;;;;2.75;2.75;;;;;;;;5080581;28;8791;-87
2021/10/27 11:52:55;;;;;;;;;6.00;5.00;;;;;;;;5078111;28;8772;-87
2021/10/27 11:55:21;;;;;;;;;7.33;5.00;;;;;;;;5077218;28;8776;-84
2021/10/27 11:57:51;;;;;;;;;6.00;5.33;;;;;;;;5077874;28;8876;-86
2021/10/27 12:05:39;;;;;;;;;6.75;6.75;;;;;;;;5077146;28;8756;-84
2021/10/27 12:13:42;;;;;;;;;5.00;5.00;;;;;;;;5081756;28;8872;-85
2021/10/27 12:16:33;;;;;;;;;5.00;5.00;;;;;;;;5104049;28;8780;-83
2021/10/27 12:19:01;;;;;;;;;5.75;4.75;;;;;;;;5085607;28;8741;-83
2021/10/27 12:21:28;;;;;;;;;6.00;5.50;;;;;;;;5089469;28;9734;-86
2021/10/27 12:23:53;;;;;;;;;7.00;5.00;;;;;;;;5102398;28;8797;-86
2021/10/27 12:26:20;;;;;;;;;4.33;4.00;;;;;;;;5105541;28;9635;-86
2021/10/27 12:28:46;;;;;;;;;5.50;5.00;;;;;;;;5085338;28;8751;-84
2021/10/27 12:31:15;;;;;;;;;6.00;5.00;;;;;;;;5105566;27;8749;-84
2021/10/27 12:33:40;;;;;;;;;5.25;5.00;;;;;;;;5088847;28;8736;-85
2021/10/27 12:36:27;;;;;;;;;6.33;6.33;;;;;;;;5087594;28;8808;-85
2021/10/27 12:39:15;;;;;;;;;6.00;5.00;;;;;;;;5109947;28;8763;-86
2021/10/27 12:41:44;;;;;;;;;8.75;6.00;;;;;;;;5094856;28;8753;-85
2021/10/27 12:44:16;;;;;;;;;4.75;4.75;;;;;;;;5087030;28;8827;-80
2021/10/27 12:46:41;;;;;;;;;4.75;4.25;;;;;;;;5099673;28;8821;-82
2021/10/27 12:49:16;;;;;;;;;7.00;6.33;;;;;;;;5097080;28;8935;-82
2021/10/27 12:51:41;;;;;;;;;4.00;4.00;;;;;;;;5098141;28;8757;-81
2021/10/27 12:54:06;;;;;;;;;5.00;5.00;;;;;;;;5099171;28;9533;-82
2021/10/27 12:56:33;;;;;;;;;5.00;5.00;;;;;;;;5098187;28;8794;-82
2021/10/27 12:59:03;;;;;;;;;4.25;4.25;;;;;;;;5096802;28;8889;-82
2021/10/27 13:09:59;;;;;;;;;7.00;5.25;;;;;;;;5096788;28;8774;-82
2021/10/27 13:15:33;;;;;;;;;7.00;7.00;;;;;;;;5097308;28;8766;-79
2021/10/27 13:31:06;;;;;;;;;5.00;5.00;;;;;;;;5113739;28;8779;-79
2021/10/27 13:33:31;;;;;;;;;4.25;4.25;;;;;;;;5121681;27;8952;-80
2021/10/27 13:35:56;;;;;;;;;4.33;4.33;;;;;;;;5125195;27;8772;-80
2021/10/27 13:38:25;;;;;;;;;5.00;5.00;;;;;;;;5122311;27;8779;-80
2021/10/27 13:40:50;;;;;;;;;6.00;6.00;;;;;;;;5123243;27;8756;-80
2021/10/27 13:59:20;;;;;;;;;4.00;3.25;;;;;;;;5100207;28;8731;-75
2021/10/27 14:22:43;;;;;;;;;3.25;3.25;;;;;;;;5106587;28;8794;-75
2021/10/27 15:21:42;;;;;;;;;4.75;4.75;;;;;;;;5097388;28;8828;-76
2021/10/27 15:37:15;;;;;;;;;9.00;9.00;;;;;;;;5123310;27;8787;-79
2021/10/27 15:45:42;;;;;;;;;26.00;23.25;;;;;;;;5127188;27;8917;-79
2021/10/27 15:50:35;;;;;;;;;36.25;31.25;;;;;;;;5117289;28;8768;-76
2021/10/27 15:53:01;;;;;;;;;32.67;30.33;;;;;;;;5117469;27;9689;-77
2021/10/27 15:55:27;;;;;;;;;28.00;26.00;;;;;;;;5117888;27;8940;-75
2021/10/27 15:57:52;;;;;;;;;30.67;26.00;;;;;;;;5116435;28;8810;-76
2021/10/27 16:00:21;;;;;;;;;17.67;14.67;;;;;;;;5117801;27;8814;-76
2021/10/27 16:02:46;;;;;;;;;11.00;10.75;;;;;;;;5117667;27;8779;-76
2021/10/27 16:05:12;;;;;;;;;11.67;9.67;;;;;;;;5119504;27;8791;-76
2021/10/27 16:07:38;;;;;;;;;15.33;15.33;;;;;;;;5129566;28;8892;-78
2021/10/27 16:10:13;;;;;;;;;26.00;23.00;;;;;;;;5129562;28;8878;-78
2021/10/27 16:12:39;;;;;;;;;23.75;23.25;;;;;;;;5129457;27;8747;-78
2021/10/27 16:15:04;;;;;;;;;25.00;24.33;;;;;;;;5120481;28;8905;-79
2021/10/27 16:17:31;;;;;;;;;33.00;30.33;;;;;;;;5117989;27;8835;-79
2021/10/27 16:19:57;;;;;;;;;47.33;36.67;;;;;;;;5120705;28;8819;-77
2021/10/27 16:22:22;;;;;;;;;44.67;35.67;;;;;;;;5117518;27;9130;-78
2021/10/27 16:24:47;;;;;;;;;46.67;38.33;;;;;;;;5117478;28;8891;-75
2021/10/27 16:27:13;;;;;;;;;34.00;30.33;;;;;;;;5117497;27;8809;-75
2021/10/27 16:29:38;;;;;;;;;34.00;31.00;;;;;;;;5116123;27;8806;-75
2021/10/27 16:32:04;;;;;;;;;28.33;26.33;;;;;;;;5101875;28;8870;-81
2021/10/27 16:34:29;;;;;;;;;36.00;31.00;;;;;;;;5109086;28;8838;-80
2021/10/27 16:36:54;;;;;;;;;39.67;35.00;;;;;;;;5100515;28;8802;-78
2021/10/27 16:39:19;;;;;;;;;48.25;39.50;;;;;;;;5104447;28;8962;-79
2021/10/27 16:41:45;;;;;;;;;42.50;37.25;;;;;;;;5110502;28;8830;-78
2021/10/27 16:44:10;;;;;;;;;37.67;34.33;;;;;;;;5098156;28;8925;-78
2021/10/27 16:46:35;;;;;;;;;40.50;34.50;;;;;;;;5095802;28;8801;-74
2021/10/27 16:49:01;;;;;;;;;43.75;36.75;;;;;;;;5096174;28;8912;-74
2021/10/27 16:51:26;;;;;;;;;45.00;37.50;;;;;;;;5107594;28;8854;-76
2021/10/27 16:53:51;;;;;;;;;36.67;31.67;;;;;;;;5116714;28;8803;-74
2021/10/27 16:56:16;;;;;;;;;33.00;31.00;;;;;;;;5116982;28;8827;-77
2021/10/27 16:58:42;;;;;;;;;32.00;30.00;;;;;;;;5116831;28;8790;-77
2021/10/27 17:01:07;;;;;;;;;27.67;25.00;;;;;;;;5114202;28;8834;-74
2021/10/27 17:03:33;;;;;;;;;25.67;22.67;;;;;;;;5116672;28;8849;-77
2021/10/27 17:05:59;;;;;;;;;30.67;28.00;;;;;;;;5116719;28;8803;-77
2021/10/27 17:08:25;;;;;;;;;59.00;47.25;;;;;;;;5119279;28;8912;-78
2021/10/27 17:10:51;;;;;;;;;65.75;53.25;;;;;;;;5115466;28;8787;-75
2021/10/27 17:13:18;;;;;;;;;68.00;58.25;;;;;;;;5116699;28;11308;-75
2021/10/27 17:15:43;;;;;;;;;55.25;45.00;;;;;;;;5116629;28;11398;-75
2021/10/27 17:18:09;;;;;;;;;60.00;47.00;;;;;;;;5116208;28;11152;-76
2021/10/27 17:20:35;;;;;;;;;60.75;49.25;;;;;;;;5110524;28;8942;-76
2021/10/27 17:23:01;;;;;;;;;67.75;54.00;;;;;;;;5095694;28;11742;-75
2021/10/27 17:25:28;;;;;;;;;67.25;53.00;;;;;;;;5096110;28;11209;-75
2021/10/27 17:27:53;;;;;;;;;61.50;48.75;;;;;;;;5096099;28;8707;-76
2021/10/27 17:30:19;;;;;;;;;46.00;39.50;;;;;;;;5104381;28;11250;-75
2021/10/27 17:32:46;;;;;;;;;44.33;35.33;;;;;;;;5115100;28;8795;-78
2021/10/27 17:35:14;;;;;;;;;42.50;34.75;;;;;;;;5116449;27;9457;-79
2021/10/27 17:37:40;;;;;;;;;32.67;30.00;;;;;;;;5111706;28;9592;-79
2021/10/27 17:40:42;;;;;;;;;36.33;31.00;;;;;;;;5094129;28;8938;-78
2021/10/27 17:42:59;;;;;;;;;29.33;28.67;;;;;;;;5091666;28;9028;-79
2021/10/27 17:45:34;;;;;;;;;34.00;30.67;;;;;;;;5094383;28;9039;-79
2021/10/27 17:48:07;;;;;;;;;40.67;35.33;;;;;;;;5095746;28;9173;-76
2021/10/27 18:00:52;;;;;;;;;23.00;22.25;;;;;;;;5095647;28;8833;-79
2021/10/27 18:03:18;;;;;;;;;21.33;21.00;;;;;;;;5094897;28;8809;-79
2021/10/27 18:05:43;;;;;;;;;21.67;20.00;;;;;;;;5094207;28;8832;-77
2021/10/27 18:08:13;;;;;;;;;20.33;17.67;;;;;;;;5095542;28;9659;-75
2021/10/27 18:10:39;;;;;;;;;23.75;22.00;;;;;;;;5095655;28;8907;-77
2021/10/27 18:13:06;;;;;;;;;22.33;22.33;;;;;;;;5097616;28;8801;-76
2021/10/27 18:15:37;;;;;;;;;20.50;20.50;;;;;;;;5098980;28;8798;-75
2021/10/27 18:18:05;;;;;;;;;21.00;21.00;;;;;;;;5098630;28;8774;-75
2021/10/27 18:20:39;;;;;;;;;19.25;19.00;;;;;;;;5098862;28;8820;-76
2021/10/27 18:36:36;;;;;;;;;16.75;14.00;;;;;;;;5118916;28;8756;-76
2021/10/27 18:39:17;;;;;;;;;15.50;15.00;;;;;;;;5118985;27;8886;-74
2021/10/27 18:41:53;;;;;;;;;17.50;16.50;;;;;;;;5118671;27;8880;-78
2021/10/27 18:44:18;;;;;;;;;12.75;12.00;;;;;;;;5119107;27;8783;-78
2021/10/27 18:46:47;;;;;;;;;16.67;15.67;;;;;;;;5122315;27;8849;-79
2021/10/27 18:49:13;;;;;;;;;15.75;14.50;;;;;;;;5124135;27;8779;-80
2021/10/27 18:51:38;;;;;;;;;14.50;14.50;;;;;;;;5123075;27;9688;-78
2021/10/27 18:54:53;;;;;;;;;13.33;12.33;;;;;;;;5093385;27;8813;-77
2021/10/27 18:59:36;;;;;;;;;15.50;15.50;;;;;;;;5088728;28;8777;-77
2021/10/27 19:10:35;;;;;;;;;14.50;13.75;;;;;;;;5091845;28;9672;-76
2021/10/27 19:13:11;;;;;;;;;17.25;16.25;;;;;;;;5094810;28;8958;-77
2021/10/27 19:15:41;;;;;;;;;16.25;14.50;;;;;;;;5093404;28;8802;-79
2021/10/27 19:18:07;;;;;;;;;15.00;14.50;;;;;;;;5097190;28;8809;-78
2021/10/27 19:20:35;;;;;;;;;17.33;16.33;;;;;;;;5100215;28;8848;-79
2021/10/27 19:23:01;;;;;;;;;18.50;18.50;;;;;;;;5097349;28;8839;-79
2021/10/27 19:25:32;;;;;;;;;16.75;16.75;;;;;;;;5096879;28;8792;-78
2021/10/27 19:33:07;;;;;;;;;23.33;20.67;;;;;;;;5087895;28;8808;-77
2021/10/27 20:06:34;;;;;;;;;18.50;17.50;;;;;;;;5098192;28;8782;-78
2021/10/27 20:17:16;;;;;;;;;16.25;15.50;;;;;;;;5078708;28;9667;-76
2021/10/27 20:52:36;;;;;;;;;18.75;17.75;;;;;;;;5116946;27;8771;-78
2021/10/27 20:55:02;;;;;;;;;17.00;17.00;;;;;;;;5115616;28;8806;-77
2021/10/27 20:57:42;;;;;;;;;14.50;14.25;;;;;;;;5115843;28;8860;-77
2021/10/27 21:00:17;;;;;;;;;15.75;14.75;;;;;;;;5115294;28;8837;-75
2021/10/27 21:02:55;;;;;;;;;14.75;14.75;;;;;;;;5116487;27;8780;-75
2021/10/27 21:13:32;;;;;;;;;16.75;14.75;;;;;;;;5116636;28;9677;-75
2021/10/27 21:15:57;;;;;;;;;17.67;15.33;;;;;;;;5116739;27;8883;-75
2021/10/27 21:18:22;;;;;;;;;18.67;18.67;;;;;;;;5116502;27;8799;-76
2021/10/27 21:20:48;;;;;;;;;16.00;14.00;;;;;;;;5116623;27;8826;-75
2021/10/27 21:23:13;;;;;;;;;16.00;16.00;;;;;;;;5115188;28;8841;-77
2021/10/27 21:25:39;;;;;;;;;15.67;15.00;;;;;;;;5116750;27;8775;-77
2021/10/27 21:44:01;;;;;;;;;14.50;14.25;;;;;;;;5083447;28;8786;-75
2021/10/27 21:46:26;;;;;;;;;16.00;14.00;;;;;;;;5095758;28;8845;-75
2021/10/27 21:48:51;;;;;;;;;16.00;14.67;;;;;;;;5097792;28;8812;-75
2021/10/27 21:51:16;;;;;;;;;14.00;13.33;;;;;;;;5099400;28;8837;-75
2021/10/27 21:53:42;;;;;;;;;18.33;16.00;;;;;;;;5099078;28;8804;-75
2021/10/27 21:56:13;;;;;;;;;12.33;12.33;;;;;;;;5099299;28;8785;-75